Panton, Vermont
Current Conditions -  °F | °C
As of 6:15 AM on Saturday 20 Dec 2014 (Local Time) from K6B0 Reporting Station
Clear Clear  
Wind Chill: 12°   Ceiling: Unl
Heat Index: 12°   Visibility: 10mi
Dew Point: 11°   Wind: 0mph
Humidity: 98%   Direction: NA
Pressure: 30.26"   Gusts: NA
Location:  44.0804°N, 73.3324°W
Report Text: K6B0 201115Z AUTO 00000KT 10SM CLR M11/M11 A3026 RMK AO2 T11121115
Loading
Personal Weather Stations






























Interactive Weather Map New forecast layout! Learn more

10-Day Weather Forecast

Advertisements
Track Severe Weather on mobile